createdAt,value
2024-04-10T00:00:22.274Z,71.04
2024-04-10T00:02:49.345Z,70.75
2024-04-10T00:05:16.476Z,71.20
2024-04-10T00:07:43.362Z,71.31
2024-04-10T00:10:10.820Z,71.39
2024-04-10T00:12:38.157Z,71.31
2024-04-10T00:15:05.672Z,71.13
2024-04-10T00:17:32.548Z,71.45
2024-04-10T00:19:59.494Z,71.55
2024-04-10T00:22:27.974Z,71.66
2024-04-10T00:24:54.919Z,71.41
2024-04-10T00:27:24.695Z,71.26
2024-04-10T00:29:52.316Z,71.59
2024-04-10T00:32:19.385Z,71.66
2024-04-10T00:34:46.470Z,71.79
2024-04-10T00:37:13.297Z,71.81
2024-04-10T00:39:40.058Z,71.82
2024-04-10T00:42:06.804Z,71.97
2024-04-10T00:44:33.947Z,71.66
2024-04-10T00:47:00.981Z,71.76
2024-04-10T00:49:28.152Z,71.75
2024-04-10T00:51:55.038Z,72.15
2024-04-10T00:54:23.910Z,71.88
2024-04-10T00:56:50.688Z,72.48
2024-04-10T00:59:17.567Z,72.58
2024-04-10T01:01:44.364Z,72.85
2024-04-10T01:04:11.419Z,72.92
2024-04-10T01:06:38.213Z,72.85
2024-04-10T01:09:04.990Z,72.98
2024-04-10T01:11:31.934Z,73.07
2024-04-10T01:13:58.880Z,72.69
2024-04-10T01:16:25.890Z,73.26
2024-04-10T01:18:52.729Z,72.83
2024-04-10T01:21:19.565Z,73.37
2024-04-10T01:23:46.377Z,73.57
2024-04-10T01:26:13.268Z,73.57
2024-04-10T01:28:40.052Z,73.54
2024-04-10T01:31:06.804Z,73.21
2024-04-10T01:33:35.972Z,73.71
2024-04-10T01:36:04.983Z,73.68
2024-04-10T01:38:31.945Z,73.45
2024-04-10T01:40:58.892Z,73.64
2024-04-10T01:43:25.623Z,73.42
2024-04-10T01:45:52.775Z,73.76
2024-04-10T01:48:19.930Z,73.76
2024-04-10T01:50:47.037Z,73.98
2024-04-10T01:53:13.839Z,73.90
2024-04-10T01:55:40.702Z,74.03
2024-04-10T01:58:07.425Z,74.27
2024-04-10T02:00:36.942Z,73.71
2024-04-10T02:03:04.054Z,73.99
2024-04-10T02:05:31.328Z,74.13
2024-04-10T02:07:58.345Z,74.01
2024-04-10T02:10:25.146Z,74.39
2024-04-10T02:12:51.868Z,74.40
2024-04-10T02:15:18.661Z,74.24
2024-04-10T02:17:45.417Z,74.59
2024-04-10T02:20:12.369Z,74.39
2024-04-10T02:22:42.714Z,74.56
2024-04-10T02:25:09.697Z,75.03
2024-04-10T02:27:36.407Z,75.16
2024-04-10T02:30:03.238Z,74.86
2024-04-10T02:32:30.306Z,75.39
2024-04-10T02:34:57.278Z,75.03
2024-04-10T02:37:25.145Z,75.64
2024-04-10T02:39:53.214Z,75.51
2024-04-10T02:42:20.130Z,75.57
2024-04-10T02:44:52.311Z,75.42
2024-04-10T02:47:20.926Z,75.82
2024-04-10T02:49:48.069Z,75.74
2024-04-10T02:52:15.061Z,75.60
2024-04-10T02:54:41.886Z,75.62
2024-04-10T02:57:08.777Z,76.04
2024-04-10T02:59:35.532Z,76.10
2024-04-10T03:02:02.403Z,76.53
2024-04-10T03:04:29.337Z,76.33
2024-04-10T03:06:56.185Z,76.26
2024-04-10T03:09:22.952Z,77.17
2024-04-10T03:11:50.467Z,76.72
2024-04-10T03:14:18.151Z,77.16
2024-04-10T03:16:45.356Z,77.44
2024-04-10T03:19:12.164Z,77.38
2024-04-10T03:21:38.926Z,77.67
2024-04-10T03:24:08.388Z,77.25
2024-04-10T03:26:35.593Z,77.90
2024-04-10T03:29:02.404Z,77.78
2024-04-10T03:31:29.162Z,77.78
2024-04-10T03:33:56.117Z,78.02
2024-04-10T03:36:25.710Z,78.03
2024-04-10T03:38:53.323Z,78.14
2024-04-10T03:41:21.421Z,78.33
2024-04-10T03:43:49.703Z,78.40
2024-04-10T03:46:16.585Z,78.82
2024-04-10T03:48:43.630Z,78.93
2024-04-10T03:51:10.648Z,78.48
2024-04-10T03:53:37.587Z,78.53
2024-04-10T03:56:04.779Z,78.90
2024-04-10T03:58:31.740Z,78.81
2024-04-10T04:00:59.189Z,78.69
2024-04-10T04:03:26.459Z,78.82
2024-04-10T04:05:53.577Z,78.65
2024-04-10T04:08:22.188Z,78.94
2024-04-10T04:10:49.359Z,78.85
2024-04-10T04:13:16.236Z,79.09
2024-04-10T04:15:43.017Z,79.09
2024-04-10T04:18:10.660Z,79.04
2024-04-10T04:20:37.706Z,78.97
2024-04-10T04:23:04.796Z,79.15
2024-04-10T04:25:33.283Z,79.25
2024-04-10T04:28:00.314Z,79.67
2024-04-10T04:30:27.427Z,79.55
2024-04-10T04:32:57.917Z,79.28
2024-04-10T04:35:24.936Z,79.76
2024-04-10T04:37:59.070Z,79.44
2024-04-10T04:40:33.379Z,79.83
2024-04-10T04:43:09.459Z,79.84
2024-04-10T04:45:37.879Z,79.97
2024-04-10T04:48:08.520Z,80.13
2024-04-10T04:50:36.128Z,79.88
2024-04-10T04:53:03.068Z,79.71
2024-04-10T04:55:29.863Z,80.33
2024-04-10T04:57:56.575Z,79.94
2024-04-10T05:00:23.652Z,80.07
2024-04-10T05:02:50.504Z,80.19
2024-04-10T05:05:20.049Z,80.08
2024-04-10T05:07:46.913Z,80.51
2024-04-10T05:10:14.577Z,80.73
2024-04-10T05:12:44.703Z,81.12
2024-04-10T05:15:13.196Z,81.26
2024-04-10T05:17:45.482Z,81.26
2024-04-10T05:20:18.345Z,81.46
2024-04-10T05:22:46.012Z,81.55
2024-04-10T05:25:13.719Z,81.37
2024-04-10T05:27:42.835Z,81.60
2024-04-10T05:30:11.025Z,81.32
2024-04-10T05:32:41.159Z,81.30
2024-04-10T05:35:16.379Z,81.29
2024-04-10T05:37:43.148Z,81.31
2024-04-10T05:40:15.405Z,81.30
2024-04-10T05:42:42.916Z,81.54
2024-04-10T05:45:11.454Z,81.56
2024-04-10T05:47:43.181Z,81.57
2024-04-10T05:50:11.379Z,81.87
2024-04-10T05:52:40.953Z,81.65
2024-04-10T05:55:08.191Z,81.80
2024-04-10T05:57:34.965Z,81.98
2024-04-10T06:00:01.699Z,81.60
2024-04-10T06:02:29.403Z,81.88
2024-04-10T06:04:57.137Z,81.76
2024-04-10T06:07:24.826Z,82.10
2024-04-10T06:09:58.963Z,82.15
2024-04-10T06:12:26.168Z,81.92
2024-04-10T06:14:54.124Z,81.83
2024-04-10T06:17:26.206Z,81.99
2024-04-10T06:19:55.213Z,81.90
2024-04-10T06:22:23.763Z,81.96
2024-04-10T06:24:52.517Z,81.98
2024-04-10T06:27:19.367Z,82.41
2024-04-10T06:29:47.727Z,82.09
2024-04-10T06:32:15.967Z,82.70
2024-04-10T06:34:43.002Z,82.72
2024-04-10T06:37:10.123Z,82.46
2024-04-10T06:39:37.248Z,82.69
2024-04-10T06:42:04.263Z,82.71
2024-04-10T06:44:31.166Z,83.02
2024-04-10T06:46:58.656Z,82.88
2024-04-10T06:49:28.826Z,82.28
2024-04-10T06:51:56.742Z,82.54
2024-04-10T06:54:23.702Z,82.52
2024-04-10T06:56:50.465Z,82.97
2024-04-10T06:59:18.070Z,82.67
2024-04-10T07:01:44.974Z,82.69
2024-04-10T07:04:11.803Z,82.78
2024-04-10T07:06:38.608Z,83.02
2024-04-10T07:09:05.361Z,82.63
2024-04-10T07:11:32.955Z,82.73
2024-04-10T07:14:03.041Z,82.83
2024-04-10T07:16:32.275Z,83.00
2024-04-10T07:19:00.184Z,82.88
2024-04-10T07:21:27.378Z,82.35
2024-04-10T07:23:58.265Z,82.77
2024-04-10T07:26:28.631Z,82.69
2024-04-10T07:28:57.374Z,82.52
2024-04-10T07:31:33.872Z,82.83
2024-04-10T07:34:02.770Z,82.72
2024-04-10T07:36:30.108Z,82.15
2024-04-10T07:38:59.090Z,82.68
2024-04-10T07:41:29.653Z,82.50
2024-04-10T07:43:56.474Z,82.29
2024-04-10T07:46:23.448Z,82.21
2024-04-10T07:48:56.327Z,82.62
2024-04-10T07:51:24.379Z,82.22
2024-04-10T07:53:52.109Z,82.44
2024-04-10T07:56:19.131Z,82.32
2024-04-10T07:58:46.148Z,81.97
2024-04-10T08:01:14.784Z,82.28
2024-04-10T08:03:41.820Z,81.89
2024-04-10T08:06:11.128Z,82.16
2024-04-10T08:08:41.034Z,81.58
2024-04-10T08:11:09.741Z,81.86
2024-04-10T08:13:37.184Z,81.50
2024-04-10T08:16:06.491Z,81.78
2024-04-10T08:18:38.738Z,81.33
2024-04-10T08:21:10.327Z,81.18
2024-04-10T08:23:38.996Z,81.43
2024-04-10T08:26:19.847Z,80.87
2024-04-10T08:28:52.711Z,80.85
2024-04-10T08:31:29.431Z,80.52
2024-04-10T08:33:56.885Z,80.36
2024-04-10T08:36:25.405Z,80.01
2024-04-10T08:38:52.927Z,79.85
2024-04-10T08:41:24.107Z,79.03
2024-04-10T08:43:53.092Z,78.15
2024-04-10T08:46:22.748Z,77.66
2024-04-10T08:48:52.984Z,77.79
2024-04-10T08:51:23.109Z,77.69
2024-04-10T08:53:52.358Z,78.02
2024-04-10T08:56:19.219Z,78.06
2024-04-10T08:58:46.061Z,77.32
2024-04-10T09:01:37.548Z,76.98
2024-04-10T09:04:10.204Z,77.29
2024-04-10T09:06:37.888Z,76.42
2024-04-10T09:09:08.108Z,75.57
2024-04-10T09:11:35.242Z,74.59
2024-04-10T09:14:03.115Z,75.30
2024-04-10T09:16:30.810Z,73.97
2024-04-10T09:19:08.742Z,71.92
2024-04-10T09:21:35.611Z,71.03
2024-04-10T09:24:04.846Z,71.28
2024-04-10T09:26:31.963Z,70.44
2024-04-10T09:29:12.765Z,68.92
2024-04-10T09:31:40.569Z,67.93
2024-04-10T09:34:07.877Z,66.29
2024-04-10T09:36:34.962Z,65.69
2024-04-10T09:39:02.964Z,66.32
2024-04-10T09:41:32.464Z,66.33
2024-04-10T09:44:00.278Z,66.06
2024-04-10T09:46:35.720Z,66.86
2024-04-10T09:49:13.354Z,64.31
2024-04-10T09:51:41.315Z,62.30
2024-04-10T09:54:12.935Z,58.01
2024-04-10T09:56:44.152Z,57.28
2024-04-10T09:59:14.658Z,56.38
2024-04-10T10:01:42.974Z,56.27
2024-04-10T10:04:10.807Z,56.15
2024-04-10T10:06:37.961Z,55.75
2024-04-10T10:09:06.750Z,54.86
2024-04-10T10:11:33.828Z,54.07
2024-04-10T10:14:03.985Z,54.21
2024-04-10T10:16:33.325Z,53.78
2024-04-10T10:19:02.361Z,52.58
2024-04-10T10:21:31.233Z,52.60
2024-04-10T10:24:00.477Z,54.04
2024-04-10T10:26:28.384Z,53.75
2024-04-10T10:29:09.026Z,54.61
2024-04-10T10:31:37.352Z,54.54
2024-04-10T10:34:07.281Z,54.38
2024-04-10T10:36:37.570Z,53.56
2024-04-10T10:39:16.512Z,53.78
2024-04-10T10:41:43.577Z,54.23
2024-04-10T10:44:10.447Z,53.53
2024-04-10T10:46:37.427Z,53.60
2024-04-10T10:49:04.796Z,53.84
2024-04-10T10:51:32.568Z,53.82
2024-04-10T10:53:59.981Z,54.64
2024-04-10T10:56:33.479Z,53.41
2024-04-10T10:59:13.328Z,54.17
2024-04-10T11:01:41.688Z,53.94
2024-04-10T11:04:16.737Z,53.61
2024-04-10T11:06:44.616Z,52.98
2024-04-10T11:09:14.044Z,52.53
2024-04-10T11:11:42.031Z,52.26
2024-04-10T11:14:16.040Z,51.92
2024-04-10T11:16:43.178Z,52.34
2024-04-10T11:19:10.274Z,51.78
2024-04-10T11:21:40.413Z,52.26
2024-04-10T11:24:08.120Z,52.49
2024-04-10T11:26:35.022Z,52.07
2024-04-10T11:29:02.261Z,51.66
2024-04-10T11:31:29.098Z,52.09
2024-04-10T11:33:56.323Z,51.56
2024-04-10T11:36:23.479Z,51.33
2024-04-10T11:38:50.703Z,51.75
2024-04-10T11:41:19.100Z,51.88
2024-04-10T11:43:46.434Z,52.21
2024-04-10T11:46:13.317Z,52.64
2024-04-10T11:48:40.474Z,52.12
2024-04-10T11:51:07.502Z,52.69
2024-04-10T11:53:34.767Z,53.40
2024-04-10T11:56:01.599Z,54.61
2024-04-10T11:58:28.394Z,54.99
2024-04-10T12:00:55.195Z,55.56
2024-04-10T12:03:22.895Z,56.21
2024-04-10T12:05:51.477Z,56.67
2024-04-10T12:08:20.129Z,56.82
2024-04-10T12:10:46.956Z,56.88
2024-04-10T12:13:13.707Z,57.45
2024-04-10T12:15:40.440Z,56.84
2024-04-10T12:18:07.267Z,56.45
2024-04-10T12:20:34.094Z,55.51
2024-04-10T12:23:01.760Z,55.73
2024-04-10T12:25:28.625Z,54.86
2024-04-10T12:27:56.021Z,53.88
2024-04-10T12:30:23.614Z,54.11
2024-04-10T12:32:50.548Z,53.74
2024-04-10T12:35:36.277Z,53.89
2024-04-10T12:38:10.410Z,53.72
2024-04-10T12:40:37.899Z,53.17
2024-04-10T12:43:05.262Z,53.75
2024-04-10T12:45:32.597Z,52.98
2024-04-10T12:47:59.821Z,52.66
2024-04-10T12:50:27.497Z,53.36
2024-04-10T12:52:54.405Z,53.41
2024-04-10T12:55:21.205Z,54.26
2024-04-10T12:57:48.497Z,54.08
2024-04-10T13:00:15.599Z,54.43
2024-04-10T13:02:44.941Z,54.76
2024-04-10T13:05:12.740Z,55.75
2024-04-10T13:07:39.764Z,54.99
2024-04-10T13:10:06.938Z,54.83
2024-04-10T13:12:34.086Z,54.13
2024-04-10T13:15:02.123Z,53.26
2024-04-10T13:17:31.351Z,53.61
2024-04-10T13:19:59.326Z,53.16
2024-04-10T13:22:28.893Z,52.69
2024-04-10T13:24:55.768Z,52.20
2024-04-10T13:27:22.523Z,52.08
2024-04-10T13:29:52.306Z,51.76
2024-04-10T13:32:19.382Z,51.65
2024-04-10T13:34:53.533Z,51.00
2024-04-10T13:37:30.216Z,51.12
2024-04-10T13:40:01.119Z,51.18
2024-04-10T13:42:27.906Z,51.51
2024-04-10T13:44:54.793Z,51.54
2024-04-10T13:47:22.220Z,51.12
2024-04-10T13:49:49.025Z,51.17
2024-04-10T13:52:15.792Z,50.77
2024-04-10T13:54:42.572Z,51.46
2024-04-10T13:57:09.379Z,51.02
2024-04-10T13:59:36.148Z,51.56
2024-04-10T14:02:03.009Z,51.88
2024-04-10T14:04:29.898Z,52.19
2024-04-10T14:06:56.800Z,52.19
2024-04-10T14:09:23.677Z,52.99
2024-04-10T14:11:51.368Z,54.43
2024-04-10T14:14:18.537Z,55.34
2024-04-10T14:16:49.569Z,55.80
2024-04-10T14:19:16.834Z,55.22
2024-04-10T14:21:43.592Z,55.58
2024-04-10T14:24:10.434Z,55.21
2024-04-10T14:26:37.540Z,55.38
2024-04-10T14:29:04.320Z,56.34
2024-04-10T14:31:31.214Z,57.82
2024-04-10T14:33:58.387Z,58.80
2024-04-10T14:36:25.327Z,59.97
2024-04-10T14:38:52.207Z,60.34
2024-04-10T14:41:18.990Z,60.92
2024-04-10T14:43:46.507Z,60.92
2024-04-10T14:46:18.100Z,61.78
2024-04-10T14:48:47.660Z,62.07
2024-04-10T14:51:14.609Z,62.20
2024-04-10T14:53:44.636Z,62.06
2024-04-10T14:56:14.797Z,62.42
2024-04-10T14:58:42.353Z,62.77
2024-04-10T15:01:15.591Z,63.05
2024-04-10T15:03:43.372Z,62.64
2024-04-10T15:06:10.909Z,62.54
2024-04-10T15:08:38.114Z,63.17
2024-04-10T15:11:05.476Z,63.11
2024-04-10T15:13:32.797Z,62.97
2024-04-10T15:15:59.638Z,63.04
2024-04-10T15:18:29.569Z,63.16
2024-04-10T15:20:59.129Z,63.43
2024-04-10T15:23:26.633Z,63.75
2024-04-10T15:25:54.953Z,63.66
2024-04-10T15:28:22.690Z,64.46
2024-04-10T15:31:01.444Z,64.94
2024-04-10T15:33:29.941Z,64.26
2024-04-10T15:36:07.165Z,64.96
2024-04-10T15:38:35.660Z,64.90
2024-04-10T15:41:06.946Z,64.73
2024-04-10T15:43:34.554Z,64.76
2024-04-10T15:46:02.998Z,65.01
2024-04-10T15:48:30.788Z,65.49
2024-04-10T15:50:59.712Z,65.56
2024-04-10T15:53:27.033Z,65.61
2024-04-10T15:56:08.239Z,66.16
2024-04-10T15:58:36.454Z,65.87
2024-04-10T16:01:05.800Z,66.10
2024-04-10T16:03:35.190Z,66.27
2024-04-10T16:06:03.734Z,66.67
2024-04-10T16:08:31.101Z,66.47
2024-04-10T16:10:59.495Z,66.75
2024-04-10T16:13:27.322Z,67.37
2024-04-10T16:15:54.792Z,67.43
2024-04-10T16:18:23.963Z,68.08
2024-04-10T16:20:50.931Z,68.01
2024-04-10T16:23:18.161Z,68.30
2024-04-10T16:25:45.019Z,68.51
2024-04-10T16:28:11.921Z,69.23
2024-04-10T16:30:41.948Z,69.01
2024-04-10T16:33:08.864Z,69.66
2024-04-10T16:35:35.836Z,69.21
2024-04-10T16:38:02.762Z,69.98
2024-04-10T16:40:29.491Z,69.82
2024-04-10T16:42:56.290Z,69.94
2024-04-10T16:45:25.548Z,70.41
2024-04-10T16:47:52.602Z,70.44
2024-04-10T16:50:19.731Z,70.69
2024-04-10T16:52:51.055Z,70.95
2024-04-10T16:55:18.177Z,71.34
2024-04-10T16:57:44.961Z,71.42
2024-04-10T17:00:12.587Z,71.76
2024-04-10T17:02:39.582Z,71.94
2024-04-10T17:05:07.025Z,72.07
2024-04-10T17:07:34.090Z,72.48
2024-04-10T17:10:00.912Z,72.55
2024-04-10T17:12:30.538Z,73.15
2024-04-10T17:14:58.258Z,73.22
2024-04-10T17:19:16.314Z,73.24
2024-04-10T17:21:50.808Z,73.14
2024-04-10T17:24:18.732Z,74.35
2024-04-10T17:26:46.187Z,74.04
2024-04-10T17:29:20.236Z,74.37
2024-04-10T17:31:51.701Z,74.30
2024-04-10T17:34:19.733Z,74.85
2024-04-10T17:36:46.608Z,74.86
2024-04-10T17:39:13.545Z,75.10
2024-04-10T17:41:40.512Z,75.31
2024-04-10T17:44:08.080Z,75.06
2024-04-10T17:46:35.280Z,75.25
2024-04-10T17:49:02.251Z,75.51
2024-04-10T17:51:29.159Z,75.53
2024-04-10T17:53:57.211Z,75.60
2024-04-10T17:56:24.524Z,76.10
2024-04-10T17:58:51.445Z,76.01
2024-04-10T18:01:18.681Z,76.25
2024-04-10T18:03:52.698Z,76.04
2024-04-10T18:06:20.380Z,76.55
2024-04-10T18:08:47.346Z,76.58
2024-04-10T18:11:14.539Z,76.87
2024-04-10T18:13:41.277Z,77.25
2024-04-10T18:16:08.554Z,77.16
2024-04-10T18:18:40.231Z,77.44
2024-04-10T18:21:07.653Z,77.72
2024-04-10T18:23:36.722Z,77.63
2024-04-10T18:26:08.147Z,78.18
2024-04-10T18:28:37.428Z,77.96
2024-04-10T18:31:05.737Z,77.59
2024-04-10T18:33:34.144Z,78.62
2024-04-10T18:36:04.985Z,78.79
2024-04-10T18:38:32.666Z,78.56
2024-04-10T18:41:06.169Z,78.91
2024-04-10T18:43:36.740Z,78.97
2024-04-10T18:46:07.317Z,78.82
2024-04-10T18:48:35.775Z,79.46
2024-04-10T18:51:14.745Z,79.82
2024-04-10T18:53:41.690Z,79.22
2024-04-10T18:56:08.506Z,79.38
2024-04-10T18:58:35.419Z,79.58
2024-04-10T19:01:05.562Z,79.84
2024-04-10T19:03:34.239Z,80.06
2024-04-10T19:06:09.479Z,80.90
2024-04-10T19:08:37.723Z,80.27
2024-04-10T19:11:07.505Z,80.54
2024-04-10T19:13:35.166Z,80.47
2024-04-10T19:16:02.684Z,80.71
2024-04-10T19:18:32.053Z,81.43
2024-04-10T19:21:04.663Z,81.02
2024-04-10T19:23:33.686Z,81.42
2024-04-10T19:26:02.574Z,81.79
2024-04-10T19:28:31.930Z,81.24
2024-04-10T19:31:01.055Z,81.75
2024-04-10T19:33:28.251Z,81.62
2024-04-10T19:36:11.010Z,82.36
2024-04-10T19:38:38.599Z,81.54
2024-04-10T19:41:08.187Z,82.23
2024-04-10T19:43:36.020Z,82.53
2024-04-10T19:46:03.936Z,82.22
2024-04-10T19:48:31.227Z,82.90
2024-04-10T19:51:04.460Z,82.76
2024-04-10T19:53:34.439Z,83.67
2024-04-10T19:56:04.456Z,83.05
2024-04-10T19:58:34.541Z,83.26
2024-04-10T20:01:08.094Z,83.35
2024-04-10T20:03:36.263Z,83.71
2024-04-10T20:06:05.170Z,83.59
2024-04-10T20:08:39.162Z,83.43
2024-04-10T20:11:07.301Z,83.72
2024-04-10T20:13:34.710Z,83.40
2024-04-10T20:16:05.355Z,83.56
2024-04-10T20:18:34.079Z,83.56
2024-04-10T20:21:04.675Z,84.47
2024-04-10T20:23:31.843Z,83.99
2024-04-10T20:25:58.910Z,84.66
2024-04-10T20:28:28.186Z,84.41
2024-04-10T20:31:16.386Z,85.04
2024-04-10T20:33:44.398Z,84.75
2024-04-10T20:36:12.256Z,84.59
2024-04-10T20:38:39.538Z,85.12
2024-04-10T20:41:11.255Z,85.20
2024-04-10T20:43:39.111Z,84.87
2024-04-10T20:46:07.552Z,85.48
2024-04-10T20:48:36.516Z,85.32
2024-04-10T20:51:14.583Z,85.88
2024-04-10T20:53:43.414Z,85.34
2024-04-10T20:56:12.591Z,85.63
2024-04-10T20:58:41.480Z,85.63
2024-04-10T21:01:14.425Z,85.56
2024-04-10T21:03:43.435Z,85.29
2024-04-10T21:06:12.862Z,85.46
2024-04-10T21:08:59.468Z,85.45
2024-04-10T21:11:46.651Z,85.80
2024-04-10T21:14:32.172Z,85.71
2024-04-10T21:17:17.747Z,85.77
2024-04-10T21:20:03.895Z,85.75
2024-04-10T21:22:49.599Z,86.06
2024-04-10T21:25:39.428Z,86.32
2024-04-10T21:28:25.390Z,86.04
2024-04-10T21:31:12.386Z,86.16
2024-04-10T21:33:57.974Z,86.10
2024-04-10T21:36:43.174Z,85.88
2024-04-10T21:39:28.519Z,86.39
2024-04-10T21:42:14.201Z,85.99
2024-04-10T21:45:01.449Z,85.98
2024-04-10T21:47:48.561Z,85.79
2024-04-10T21:50:34.303Z,86.36
2024-04-10T21:53:20.138Z,85.90
2024-04-10T21:56:06.470Z,85.97
2024-04-10T21:58:52.113Z,86.34
2024-04-10T22:01:45.234Z,86.19
2024-04-10T22:04:39.632Z,87.28
2024-04-10T22:07:26.065Z,86.04
2024-04-10T22:09:52.871Z,86.27
2024-04-10T22:12:19.617Z,86.53
2024-04-10T22:14:46.635Z,86.46
2024-04-10T22:17:31.927Z,86.60
2024-04-10T22:20:22.135Z,86.41
2024-04-10T22:23:07.757Z,86.76
2024-04-10T22:25:45.977Z,86.38
2024-04-10T22:28:12.743Z,86.39
2024-04-10T22:30:39.475Z,86.55
2024-04-10T22:33:11.410Z,86.85
2024-04-10T22:35:38.546Z,86.90
2024-04-10T22:38:05.362Z,87.09
2024-04-10T22:40:32.225Z,86.57
2024-04-10T22:42:59.445Z,86.44
2024-04-10T22:45:29.220Z,86.49
2024-04-10T22:47:56.094Z,86.74
2024-04-10T22:50:23.045Z,86.68
2024-04-10T22:52:50.383Z,86.58
2024-04-10T22:55:17.118Z,86.95
2024-04-10T22:57:44.034Z,86.42
2024-04-10T23:00:12.117Z,86.99
2024-04-10T23:02:39.197Z,86.91
2024-04-10T23:05:17.797Z,86.58
2024-04-10T23:08:25.423Z,86.53
2024-04-10T23:10:41.021Z,86.71
2024-04-10T23:13:07.743Z,86.97
2024-04-10T23:15:34.686Z,86.66
2024-04-10T23:18:02.790Z,86.56
2024-04-10T23:20:30.718Z,86.50
2024-04-10T23:22:57.826Z,86.75
2024-04-10T23:25:24.661Z,86.75
2024-04-10T23:27:52.148Z,86.53
2024-04-10T23:30:18.899Z,86.34
2024-04-10T23:32:45.771Z,86.63
2024-04-10T23:35:12.700Z,86.32
2024-04-10T23:37:39.415Z,86.48
2024-04-10T23:40:08.550Z,86.44
2024-04-10T23:42:35.253Z,86.90
2024-04-10T23:45:04.114Z,86.63
2024-04-10T23:47:31.856Z,87.04
2024-04-10T23:49:58.803Z,86.49
2024-04-10T23:52:25.547Z,86.93
2024-04-10T23:54:53.087Z,86.82
2024-04-10T23:57:19.924Z,86.55
2024-04-10T23:59:46.692Z,86.92
